Time;durP1;ratioP1;P1;durP2;ratioP2;P2;SDS_P1;SDS_P2;PMS_P1;PMS_P2;Temp;Humidity;BMP_temperature;BMP_pressure;BME280_temperature;BME280_humidity;BME280_pressure;Samples;Min_cycle;Max_cycle;Signal;HPM_P1;HPM_P2
2021/03/05 00:00:11;;;;;;;15.57;8.95;;;7.20;82.00;;;5.85;74.29;95886.75;4950982;28;20276;-72
2021/03/05 00:02:37;;;;;;;;;;;7.20;82.30;;;5.83;78.05;95887.91;4954810;28;20042;-72
2021/03/05 00:05:03;;;;;;;15.55;9.20;;;7.20;82.70;;;5.83;73.02;95887.91;4948853;28;20019;-71
2021/03/05 00:07:29;;;;;;;13.43;8.98;;;7.20;82.90;;;5.81;73.45;95885.44;4949738;28;20030;-72
2021/03/05 00:09:55;;;;;;;12.75;8.43;;;7.20;82.80;;;5.80;73.40;95878.59;4966190;28;20042;-72
2021/03/05 00:12:21;;;;;;;15.10;7.65;;;7.10;82.90;;;5.78;73.44;95879.75;4912438;28;20619;-72
2021/03/05 00:14:46;;;;;;;13.48;7.28;;;7.10;82.60;;;5.77;73.93;95889.38;4935813;28;20099;-72
2021/03/05 00:17:12;;;;;;;11.55;7.22;;;7.10;82.60;;;5.76;73.25;95889.53;4936796;28;20035;-71
2021/03/05 00:19:38;;;;;;;11.25;6.35;;;7.10;82.20;;;5.78;73.88;95895.41;4953446;28;20482;-72
2021/03/05 00:22:07;;;;;;;14.15;6.38;;;7.10;81.80;;;5.76;74.90;95884.31;4970604;28;20505;-71
2021/03/05 00:24:34;;;;;;;13.18;7.35;;;7.10;81.80;;;5.76;74.19;95887.75;4950700;28;20418;-71
2021/03/05 00:27:00;;;;;;;11.70;6.82;;;7.10;82.20;;;5.80;73.69;95886.44;4936375;28;20567;-71
2021/03/05 00:29:25;;;;;;;11.27;7.35;;;7.30;82.20;;;5.81;73.81;95884.63;4984749;28;20048;-71
2021/03/05 00:31:51;;;;;;;11.77;7.07;;;7.20;82.30;;;5.82;74.44;95881.03;4954668;28;20066;-71
2021/03/05 00:34:17;;;;;;;12.93;7.53;;;7.30;82.10;;;5.81;74.11;95879.41;4941231;28;20037;-71
2021/03/05 00:36:42;;;;;;;14.55;8.10;;;7.20;82.70;;;5.79;74.62;95881.38;4952684;23;20455;-64
2021/03/05 00:39:08;;;;;;;13.50;7.75;;;7.20;82.60;;;5.79;74.56;95884.00;4917313;28;20338;-64
2021/03/05 00:41:35;;;;;;;10.93;7.75;;;7.20;82.80;;;5.79;74.83;95882.19;4909022;29;20035;-66
2021/03/05 00:44:03;;;;;;;12.05;7.82;;;7.30;82.80;;;5.78;75.40;95877.97;4947592;29;20559;-66
2021/03/05 00:46:28;;;;;;;11.32;7.45;;;7.10;83.10;;;5.78;74.65;95874.53;4946088;28;20039;-64
2021/03/05 00:48:54;;;;;;;13.90;7.50;;;7.30;83.00;;;5.79;74.73;95881.38;4942456;28;20522;-64
2021/03/05 00:51:21;;;;;;;11.52;7.53;;;7.30;82.80;;;5.83;75.10;95886.09;4918383;29;20635;-66
2021/03/05 00:53:46;;;;;;;11.25;7.72;;;7.30;83.00;;;5.83;75.52;95887.91;4927289;29;20031;-65
2021/03/05 00:56:12;;;;;;;14.60;8.05;;;7.30;82.90;;;5.82;74.97;95881.84;4937159;28;20043;-65
2021/03/05 00:58:38;;;;;;;10.60;7.43;;;7.30;83.00;;;5.81;74.97;95887.25;4932185;28;20403;-67
2021/03/05 01:01:04;;;;;;;12.05;8.40;;;7.20;82.90;;;5.80;75.02;95889.03;4950137;28;20059;-64
2021/03/05 01:03:30;;;;;;;16.27;8.40;;;7.30;83.00;;;5.69;75.85;95872.91;4945666;28;20518;-64
2021/03/05 01:05:55;;;;;;;14.68;8.30;;;7.10;83.30;;;5.74;75.55;95883.66;4932011;28;20038;-64
2021/03/05 01:08:21;;;;;;;13.88;8.50;;;7.10;83.40;;;5.70;75.79;95877.16;4943528;28;20035;-64
2021/03/05 01:10:47;;;;;;;11.75;8.00;;;7.10;83.60;;;5.71;75.48;95887.44;4948948;28;20403;-64
2021/03/05 01:13:13;;;;;;;12.07;8.40;;;7.10;83.50;;;5.69;76.04;95881.56;4957470;28;20114;-64
2021/03/05 01:15:39;;;;;;;12.00;8.50;;;7.10;83.80;;;5.69;75.84;95880.75;4952729;28;20036;-64
2021/03/05 01:18:05;;;;;;;14.25;9.25;;;7.20;83.30;;;5.68;75.93;95882.53;4948838;28;20035;-67
2021/03/05 01:20:30;;;;;;;12.73;9.00;;;7.20;83.20;;;5.69;76.37;95888.56;4950842;28;20039;-66
2021/03/05 01:22:56;;;;;;;11.48;8.93;;;7.20;83.20;;;5.57;75.78;95871.59;4948201;28;20086;-66
2021/03/05 01:25:28;;;;;;;16.83;9.68;;;7.20;83.50;;;5.69;77.14;95893.78;4933670;29;20039;-66
2021/03/05 01:27:54;;;;;;;13.77;8.75;;;7.20;83.40;;;5.68;75.76;95885.16;4940670;28;20516;-64
2021/03/05 01:30:21;;;;;;;11.68;8.55;;;7.20;83.50;;;5.70;75.68;95887.59;4956248;28;20050;-66
2021/03/05 01:32:46;;;;;;;12.57;9.43;;;7.20;83.40;;;5.69;76.16;95885.97;4934429;28;20058;-64
2021/03/05 01:35:21;;;;;;;14.35;9.25;;;7.20;83.60;;;5.68;78.78;95881.72;4948006;28;20058;-64
2021/03/05 01:37:47;;;;;;;14.57;9.35;;;7.10;83.80;;;5.67;75.83;95880.09;4944107;28;20554;-64
2021/03/05 01:40:19;;;;;;;14.75;9.18;;;7.10;83.90;;;5.68;78.64;95877.31;4943712;28;20042;-66
2021/03/05 01:42:45;;;;;;;16.63;9.85;;;7.20;83.60;;;5.67;76.89;95873.09;4932048;28;20038;-66
2021/03/05 01:45:22;;;;;;;13.15;8.82;;;7.20;83.70;;;5.69;78.93;95878.13;4925136;29;20122;-66
2021/03/05 01:47:53;;;;;;;13.07;9.18;;;7.20;83.60;;;5.70;77.49;95879.75;4948286;28;20459;-67
2021/03/05 01:50:28;;;;;;;14.88;9.43;;;7.20;83.40;;;5.70;78.17;95871.94;4940146;28;20554;-66
2021/03/05 01:53:12;;;;;;;13.15;8.82;;;7.20;83.70;;;5.71;79.62;95873.56;4944287;28;20042;-66
2021/03/05 01:55:38;;;;;;;13.75;8.93;;;7.20;83.50;;;5.71;76.62;95870.97;4925684;28;20058;-67
2021/03/05 01:58:04;;;;;;;13.57;9.55;;;7.20;83.70;;;5.61;76.42;95857.25;4947068;28;20515;-64
2021/03/05 02:00:41;;;;;;;14.75;9.73;;;7.20;83.80;;;5.72;78.86;95872.59;4941061;28;20128;-66
2021/03/05 02:03:07;;;;;;;14.50;9.68;;;7.20;83.40;;;5.70;77.20;95877.97;4942493;28;20043;-66
2021/03/05 02:05:34;;;;;;;14.15;9.45;;;7.10;83.90;;;5.70;76.49;95871.94;4950328;28;20183;-64
2021/03/05 02:07:59;;;;;;;12.18;9.35;;;7.20;84.10;;;5.70;76.49;95874.56;4946971;28;20043;-64
2021/03/05 02:10:25;;;;;;;14.27;9.82;;;7.20;83.60;;;5.68;76.46;95869.50;4940390;28;20040;-66
2021/03/05 02:12:51;;;;;;;12.75;8.82;;;7.20;83.50;;;5.67;77.13;95861.84;4958843;28;20063;-66
2021/03/05 02:15:17;;;;;;;17.08;10.15;;;7.10;83.80;;;5.66;76.92;95866.25;4958347;28;20043;-64
2021/03/05 02:17:55;;;;;;;13.45;9.90;;;7.10;84.00;;;5.66;79.25;95875.81;4947970;28;20038;-64
2021/03/05 02:20:47;;;;;;;14.77;8.98;;;7.10;83.90;;;5.65;79.04;95874.19;4949082;28;20049;-64
2021/03/05 02:23:12;;;;;;;12.18;8.95;;;7.10;83.90;;;5.64;77.10;95880.41;4944384;28;20031;-64
2021/03/05 02:26:08;;;;;;;11.88;8.68;;;7.10;84.00;;;5.65;80.79;95884.63;4949797;28;20126;-64
2021/03/05 02:29:09;;;;;;;10.90;7.63;;;7.10;83.90;;;5.64;80.71;95888.22;4932276;29;20035;-64
2021/03/05 02:31:55;;;;;;;10.65;7.18;;;7.10;83.80;;;5.64;79.97;95883.00;4946667;28;20455;-64
2021/03/05 02:34:27;;;;;;;10.63;7.32;;;7.10;83.50;;;5.63;77.96;95882.19;4947004;28;20130;-66
2021/03/05 02:37:10;;;;;;;10.40;6.50;;;7.10;83.50;;;5.60;80.11;95881.72;4947917;28;20182;-66
2021/03/05 02:39:47;;;;;;;10.40;6.63;;;7.10;83.20;;;5.58;79.11;95878.44;4927840;29;20031;-66
2021/03/05 02:42:53;;;;;;;9.27;6.10;;;7.10;83.00;;;5.59;79.45;95880.09;4933311;28;20049;-66
2021/03/05 02:45:27;;;;;;;9.63;5.75;;;7.00;82.90;;;5.57;78.77;95877.63;4924559;29;20054;-64
2021/03/05 02:47:57;;;;;;;9.63;5.93;;;7.00;83.10;;;5.54;77.44;95870.94;4927802;28;20612;-64
2021/03/05 02:50:25;;;;;;;11.32;6.55;;;7.00;82.70;;;5.54;77.43;95873.56;4931858;29;20054;-64
2021/03/05 02:52:52;;;;;;;7.30;5.68;;;6.90;82.80;;;5.52;77.09;95872.09;4925177;28;20041;-64
2021/03/05 02:55:17;;;;;;;9.02;5.80;;;7.00;82.80;;;5.54;77.31;95878.78;4936458;29;20036;-64
2021/03/05 02:57:46;;;;;;;10.00;5.63;;;7.00;82.60;;;5.56;77.63;95876.00;4946267;28;20126;-64
2021/03/05 03:00:14;;;;;;;9.75;5.80;;;7.10;82.40;;;5.57;77.11;95874.22;4924121;28;20051;-64
2021/03/05 03:02:39;;;;;;;10.13;6.07;;;7.10;82.30;;;5.59;77.10;95874.88;4948158;28;20069;-64
2021/03/05 03:05:06;;;;;;;10.02;6.63;;;7.10;82.20;;;5.56;77.14;95891.66;4952260;28;20126;-64
2021/03/05 03:07:32;;;;;;;8.48;6.30;;;7.00;82.50;;;5.56;76.90;95893.44;4944729;28;20038;-64
2021/03/05 03:09:57;;;;;;;9.73;6.93;;;7.00;83.30;;;5.52;76.89;95899.00;4932746;28;20035;-64
2021/03/05 03:12:23;;;;;;;11.13;6.45;;;6.90;83.30;;;5.51;77.43;95896.56;4941310;28;20037;-64
2021/03/05 03:14:49;;;;;;;9.88;6.75;;;6.90;83.60;;;5.50;77.50;95903.56;4946804;28;20031;-64
2021/03/05 03:17:15;;;;;;;10.13;7.50;;;6.90;83.80;;;5.48;77.64;95895.09;4931479;29;20046;-64
2021/03/05 03:19:46;;;;;;;12.38;7.20;;;6.90;84.00;;;5.49;79.70;95891.50;4904502;29;20055;-64
2021/03/05 03:22:12;;;;;;;12.80;7.90;;;6.90;84.20;;;5.41;77.22;95888.88;4930801;28;20594;-64
2021/03/05 03:24:38;;;;;;;11.65;8.43;;;7.00;84.50;;;5.48;77.80;95895.09;4930748;29;20185;-64
2021/03/05 03:27:04;;;;;;;20.67;13.68;;;6.90;84.60;;;5.48;77.98;95902.09;4929422;29;20051;-65
2021/03/05 03:29:29;;;;;;;12.68;8.65;;;7.00;84.70;;;5.43;77.99;95896.53;4954273;28;20086;-65
2021/03/05 03:31:55;;;;;;;13.82;9.32;;;7.00;84.80;;;5.51;78.43;95905.19;4944365;28;20498;-64
2021/03/05 03:34:22;;;;;;;17.45;10.75;;;7.00;84.40;;;5.49;78.10;95893.28;4939184;28;20506;-64
2021/03/05 03:36:48;;;;;;;15.38;9.20;;;7.10;84.50;;;5.51;78.47;95897.38;4944102;28;20539;-64
2021/03/05 03:39:14;;;;;;;12.63;8.75;;;7.10;84.60;;;5.51;78.20;95910.41;4935293;28;20051;-65
2021/03/05 03:41:40;;;;;;;13.68;8.95;;;7.00;84.90;;;5.52;78.13;95917.25;4946017;28;20098;-65
2021/03/05 03:44:08;;;;;;;14.82;10.35;;;7.00;85.00;;;5.53;79.57;95912.88;4947058;28;20050;-65
2021/03/05 03:46:37;;;;;;;16.77;11.50;;;7.00;85.30;;;5.49;79.24;95907.16;4937512;28;20319;-64
2021/03/05 03:49:07;;;;;;;16.08;10.85;;;7.00;85.10;;;5.53;80.16;95921.50;4932546;28;20063;-64
2021/03/05 03:51:37;;;;;;;19.50;12.35;;;7.00;85.30;;;5.53;80.72;95912.88;4945606;28;20086;-65
2021/03/05 03:54:02;;;;;;;21.13;15.43;;;7.00;85.50;;;5.55;79.48;95921.34;4947610;28;20039;-65
2021/03/05 03:56:30;;;;;;;17.88;11.82;;;7.00;85.60;;;5.53;79.78;95918.91;4934485;28;20693;-64
2021/03/05 03:58:56;;;;;;;17.35;11.43;;;7.00;85.60;;;5.55;78.74;95913.50;4944760;28;20407;-65
2021/03/05 04:01:21;;;;;;;14.85;10.02;;;7.10;85.30;;;5.58;78.89;95920.19;4920757;28;20028;-65
2021/03/05 04:03:49;;;;;;;17.73;10.68;;;7.10;84.60;;;5.58;78.90;95920.19;4929606;28;20050;-65
2021/03/05 04:06:15;;;;;;;14.35;10.50;;;7.10;84.80;;;5.56;78.74;95922.16;4906549;28;20040;-64
2021/03/05 04:08:41;;;;;;;13.70;9.32;;;7.10;85.00;;;5.57;79.15;95918.56;4943056;28;20130;-65
2021/03/05 04:11:07;;;;;;;15.88;10.32;;;7.10;84.60;;;5.58;79.37;95928.03;4946098;28;20057;-65
2021/03/05 04:13:33;;;;;;;14.00;9.48;;;7.10;84.80;;;5.54;79.26;95924.94;4938267;28;20110;-64
2021/03/05 04:15:59;;;;;;;12.27;9.10;;;7.00;85.00;;;5.51;78.66;95926.06;4948588;28;20043;-65
2021/03/05 04:18:38;;;;;;;13.73;9.38;;;7.00;84.80;;;5.52;80.66;95922.47;4928296;28;20050;-65
2021/03/05 04:21:07;;;;;;;13.63;9.55;;;7.00;84.60;;;5.51;79.37;95920.84;4946076;28;20046;-65
2021/03/05 04:23:34;;;;;;;16.02;9.77;;;7.00;84.70;;;5.51;79.30;95926.06;4938503;28;20074;-64
2021/03/05 04:26:00;;;;;;;15.10;9.80;;;7.00;84.30;;;5.49;78.64;95928.03;4915013;29;20051;-65
2021/03/05 04:28:26;;;;;;;13.57;9.98;;;6.90;83.90;;;5.46;78.69;95924.94;4940551;28;20130;-64
2021/03/05 04:30:51;;;;;;;14.57;9.65;;;7.00;84.20;;;5.47;79.10;95937.81;4947306;28;20437;-65
2021/03/05 04:33:17;;;;;;;13.68;10.10;;;6.90;84.10;;;5.47;78.69;95937.00;4954623;28;20046;-65
2021/03/05 04:35:43;;;;;;;16.67;11.40;;;7.00;83.90;;;5.45;78.77;95942.38;4941424;28;20074;-65
2021/03/05 04:38:09;;;;;;;14.68;10.15;;;6.90;84.10;;;5.42;78.76;95947.06;4935525;28;20175;-65
2021/03/05 04:40:34;;;;;;;12.82;9.55;;;6.80;84.80;;;5.42;78.75;95949.69;4944694;28;20046;-65
2021/03/05 04:43:00;;;;;;;14.38;9.35;;;6.80;84.60;;;5.41;78.54;95951.47;4944856;28;20031;-64
2021/03/05 04:45:26;;;;;;;11.23;8.38;;;6.90;84.50;;;5.41;79.09;95948.03;4946351;28;20098;-65
2021/03/05 04:47:52;;;;;;;13.40;8.57;;;6.80;84.40;;;5.38;78.98;95946.56;4945691;28;20114;-64
2021/03/05 04:50:17;;;;;;;11.27;8.15;;;6.80;84.50;;;5.38;79.31;95950.97;4920952;28;20094;-65
2021/03/05 04:52:43;;;;;;;10.48;7.65;;;6.90;84.40;;;5.38;79.05;95958.81;4944358;28;20058;-64
2021/03/05 04:55:10;;;;;;;10.00;7.35;;;7.00;84.20;;;5.39;79.36;95958.63;4940316;28;20070;-65
2021/03/05 04:57:35;;;;;;;11.45;6.93;;;7.00;84.30;;;5.38;78.90;95950.97;4946236;28;20129;-64
2021/03/05 05:00:03;;;;;;;14.50;7.65;;;6.90;84.30;;;5.38;79.03;95967.44;4946183;28;20050;-64
2021/03/05 05:02:29;;;;;;;12.20;7.65;;;6.90;84.20;;;5.38;78.94;95967.44;4929371;28;20044;-62
2021/03/05 05:04:54;;;;;;;11.95;7.55;;;6.90;84.40;;;5.39;78.73;95963.84;4934603;28;20416;-64
2021/03/05 05:07:20;;;;;;;9.95;7.25;;;7.00;84.00;;;5.41;79.21;95956.69;4955370;28;20510;-65
2021/03/05 05:09:46;;;;;;;11.40;7.45;;;7.00;83.80;;;5.40;78.63;95965.50;4944172;28;20043;-63
2021/03/05 05:12:12;;;;;;;10.93;7.47;;;7.00;83.80;;;5.36;78.88;95969.41;4912673;28;20027;-63
2021/03/05 05:14:37;;;;;;;11.43;8.10;;;6.90;83.50;;;5.36;79.08;95969.41;4940363;28;20411;-64
2021/03/05 05:17:03;;;;;;;12.07;7.88;;;6.90;83.40;;;5.32;78.63;95973.31;4964912;28;20464;-64
2021/03/05 05:19:29;;;;;;;13.50;8.02;;;6.90;83.10;;;5.33;78.89;95972.31;4958515;28;20146;-64
2021/03/05 05:21:55;;;;;;;12.27;8.45;;;6.90;82.90;;;5.34;78.55;95968.75;4944558;28;20106;-64
2021/03/05 05:24:21;;;;;;;12.10;8.80;;;7.00;82.80;;;5.34;78.55;95980.97;4923882;28;20082;-64
2021/03/05 05:26:46;;;;;;;12.35;8.40;;;6.90;82.90;;;5.32;78.34;95982.91;4945898;28;20046;-64
2021/03/05 05:29:12;;;;;;;11.40;7.80;;;6.90;83.20;;;5.29;78.43;95983.25;4939302;28;20063;-64
2021/03/05 05:31:38;;;;;;;13.00;9.00;;;6.80;83.20;;;5.20;78.53;95977.16;4946669;28;20042;-64
2021/03/05 05:34:03;;;;;;;11.77;7.63;;;6.70;83.20;;;5.23;78.48;95979.50;4945740;28;20107;-65
2021/03/05 05:36:29;;;;;;;11.20;7.90;;;6.80;83.20;;;5.22;78.77;95985.69;4934654;29;20055;-64
2021/03/05 05:38:55;;;;;;;9.45;7.38;;;6.80;82.50;;;5.18;78.48;95985.16;4938402;28;20043;-65
2021/03/05 05:41:24;;;;;;;10.07;7.38;;;6.70;82.30;;;5.19;79.29;95989.38;4954769;28;20094;-64
2021/03/05 05:43:50;;;;;;;10.68;7.25;;;6.90;81.70;;;5.18;78.59;95981.72;4954530;28;20035;-64
2021/03/05 05:46:18;;;;;;;11.48;7.88;;;6.90;81.60;;;5.17;78.29;95982.72;4942059;28;20043;-64
2021/03/05 05:48:47;;;;;;;11.57;7.43;;;6.80;81.90;;;5.18;78.24;95981.72;4934318;29;20134;-64
2021/03/05 05:51:20;;;;;;;12.05;8.18;;;6.70;81.90;;;5.14;79.32;95983.03;4950726;28;20050;-64
2021/03/05 05:53:47;;;;;;;11.43;7.88;;;6.70;82.20;;;5.09;78.45;95980.09;4931079;29;20645;-64
2021/03/05 05:56:14;;;;;;;12.20;8.60;;;6.60;82.40;;;5.10;78.78;95989.53;4898075;29;20065;-65
2021/03/05 05:58:40;;;;;;;12.50;8.18;;;6.60;82.30;;;5.10;78.24;95994.75;4937198;29;20047;-64
2021/03/05 06:01:06;;;;;;;11.80;8.50;;;6.60;82.20;;;5.08;77.97;95991.50;4949014;28;20117;-65
2021/03/05 06:03:31;;;;;;;13.07;9.02;;;6.60;82.40;;;5.09;77.90;95993.13;4945491;28;20090;-66
2021/03/05 06:05:57;;;;;;;12.80;9.20;;;6.70;81.90;;;5.08;78.36;95996.69;4948548;29;20083;-65
2021/03/05 06:08:23;;;;;;;11.55;8.60;;;6.70;81.90;;;5.04;77.84;96004.03;4924077;28;20803;-65
2021/03/05 06:10:49;;;;;;;12.65;8.93;;;6.60;81.40;;;5.03;77.86;96004.19;4899333;29;20038;-66
2021/03/05 06:13:15;;;;;;;13.52;9.50;;;6.70;81.50;;;5.05;77.93;96002.22;4930690;28;20079;-65
2021/03/05 06:15:42;;;;;;;11.73;8.90;;;6.70;81.40;;;5.05;78.10;96002.22;4936813;29;20047;-65
2021/03/05 06:18:27;;;;;;;13.88;9.02;;;6.70;81.60;;;5.04;78.27;96004.03;4933226;28;20031;-66
2021/03/05 06:20:53;;;;;;;13.07;9.77;;;6.80;81.40;;;5.06;78.24;96016.91;4952266;28;20065;-66
2021/03/05 06:23:19;;;;;;;12.52;9.90;;;6.80;81.80;;;5.06;77.90;96022.09;4914412;29;20400;-65
2021/03/05 06:25:44;;;;;;;14.43;10.27;;;6.70;81.50;;;5.06;78.16;96016.91;4934876;29;20436;-65
2021/03/05 06:28:15;;;;;;;19.60;13.20;;;6.80;81.50;;;5.04;79.27;96022.28;4917512;29;20032;-66
2021/03/05 06:30:41;;;;;;;10.27;7.90;;;6.90;81.70;;;5.05;77.67;96030.91;4915820;29;20182;-65
2021/03/05 06:33:31;;;;;;;7.75;5.70;;;6.80;80.40;;;4.97;78.15;96030.84;4914651;29;20042;-65
2021/03/05 06:36:18;;;;;;;8.38;5.65;;;6.60;79.20;;;4.92;78.68;96042.56;4899100;29;20376;-65
2021/03/05 06:38:45;;;;;;;6.20;5.03;;;6.60;79.90;;;4.91;77.13;96043.53;4957046;23;20061;-68
2021/03/05 06:41:31;;;;;;;7.55;5.65;;;6.60;79.40;;;4.86;78.05;96044.97;4926433;28;20038;-69
2021/03/05 06:44:00;;;;;;;6.63;5.10;;;6.50;79.40;;;4.82;77.33;96044.47;4956127;28;20034;-69
2021/03/05 06:46:31;;;;;;;6.53;5.28;;;6.60;79.20;;;4.79;77.07;96055.22;4964735;28;20038;-69
2021/03/05 06:48:57;;;;;;;6.22;4.78;;;6.50;78.30;;;4.74;76.78;96060.03;4950109;29;20023;-69
2021/03/05 06:51:23;;;;;;;6.68;5.22;;;6.40;78.50;;;4.68;76.67;96054.63;4933900;29;20039;-70
2021/03/05 06:53:49;;;;;;;7.32;5.47;;;6.40;79.00;;;4.66;77.01;96065.22;4953721;28;20042;-69
2021/03/05 06:56:27;;;;;;;7.18;5.57;;;6.40;79.50;;;4.64;77.53;96066.34;4934427;28;20503;-69
2021/03/05 06:59:10;;;;;;;6.68;5.53;;;6.40;78.90;;;4.63;78.07;96075.94;4938425;28;20034;-70
2021/03/05 07:01:55;;;;;;;7.30;5.68;;;6.40;79.10;;;4.63;77.97;96081.16;4983776;28;20039;-70
2021/03/05 07:04:49;;;;;;;7.05;5.05;;;6.50;79.10;;;4.56;77.42;96093.16;4920163;28;20403;-70
2021/03/05 07:07:18;;;;;;;6.38;5.35;;;6.30;78.50;;;4.54;76.74;96108.13;4930191;28;20530;-68
2021/03/05 07:09:45;;;;;;;5.57;4.75;;;6.30;78.90;;;4.53;76.89;96098.69;4936225;28;20366;-68
2021/03/05 07:12:20;;;;;;;7.85;5.28;;;6.20;79.00;;;4.52;77.48;96102.22;4933144;29;20035;-70
2021/03/05 07:15:06;;;;;;;6.30;4.82;;;6.20;79.60;;;4.49;78.07;96110.34;4949245;29;20042;-71
2021/03/05 07:17:32;;;;;;;5.45;4.47;;;6.10;79.50;;;4.46;76.42;96113.25;4948164;28;20067;-67
2021/03/05 07:19:58;;;;;;;5.63;4.30;;;6.10;79.60;;;4.44;76.70;96121.22;4933358;29;20063;-70
2021/03/05 07:22:28;;;;;;;5.25;4.25;;;6.10;79.40;;;4.41;77.30;96113.72;4933074;28;20036;-71
2021/03/05 07:24:58;;;;;;;4.97;4.10;;;6.10;79.80;;;4.43;77.40;96121.38;4950549;28;20062;-75
2021/03/05 07:27:29;;;;;;;4.78;4.03;;;6.10;79.70;;;4.39;77.19;96126.06;4952078;28;20054;-67
2021/03/05 07:29:56;;;;;;;5.13;4.03;;;6.10;79.30;;;4.38;76.73;96134.03;4931799;28;20177;-68
2021/03/05 07:32:24;;;;;;;5.20;4.10;;;6.10;79.50;;;4.39;76.99;96130.47;4946517;28;20495;-67
2021/03/05 07:34:58;;;;;;;5.80;4.95;;;6.10;80.00;;;4.40;77.09;96137.31;4964610;28;20434;-69
2021/03/05 07:37:32;;;;;;;7.85;6.05;;;6.10;79.30;;;4.36;76.60;96147.22;4960154;28;20437;-66
2021/03/05 07:40:07;;;;;;;8.27;5.75;;;6.10;78.00;;;4.33;76.71;96146.69;4938564;28;20042;-68
2021/03/05 07:42:33;;;;;;;7.20;5.50;;;6.00;77.70;;;4.23;75.53;96142.34;4935499;28;20107;-69
2021/03/05 07:45:01;;;;;;;7.97;6.05;;;5.80;78.00;;;4.18;75.62;96149.81;4916920;28;20035;-69
2021/03/05 07:47:29;;;;;;;8.57;6.20;;;5.80;77.80;;;4.15;75.92;96159.69;4905520;28;20542;-70
2021/03/05 07:49:57;;;;;;;8.15;5.82;;;5.80;78.10;;;4.09;76.30;96155.91;4951316;28;20035;-71
2021/03/05 07:52:23;;;;;;;7.57;5.88;;;5.70;78.10;;;4.02;75.63;96162.63;4925856;28;20035;-69
2021/03/05 07:54:49;;;;;;;7.10;5.93;;;5.70;78.10;;;3.95;75.81;96170.22;4948597;28;20043;-76
2021/03/05 07:57:17;;;;;;;7.55;6.45;;;5.70;78.30;;;3.92;75.65;96174.91;4935441;28;20064;-73
2021/03/05 07:59:44;;;;;;;8.25;5.20;;;5.60;78.30;;;3.90;75.75;96179.44;4969054;28;20600;-73
2021/03/05 08:02:11;;;;;;;7.97;5.85;;;5.60;78.20;;;3.85;75.48;96179.88;4954549;28;20521;-69
2021/03/05 08:07:34;;;;;;;7.95;6.07;;;5.60;78.10;;;3.81;76.20;96185.50;4957359;28;20059;-74
2021/03/05 08:10:00;;;;;;;8.10;6.07;;;5.60;78.10;;;3.80;75.53;96191.66;4932591;29;20388;-69
2021/03/05 08:12:31;;;;;;;8.95;6.88;;;5.60;78.00;;;3.80;75.41;96194.28;4942714;29;20035;-70
2021/03/05 08:15:09;;;;;;;;;;;5.60;78.30;;;3.78;77.31;96194.41;4942574;28;20528;-70
2021/03/05 08:17:40;;;;;;;11.93;8.95;;;5.60;78.20;;;3.79;76.03;96203.03;4966596;28;19985;-68
2021/03/05 08:20:29;;;;;;;10.32;7.75;;;5.60;77.80;;;3.79;78.06;96205.63;4947624;28;20051;-73
2021/03/05 08:23:02;;;;;;;21.02;14.18;;;5.60;78.60;;;3.85;76.81;96205.09;4967386;28;20042;-70
2021/03/05 08:25:35;;;;;;;12.23;8.40;;;5.70;78.40;;;3.88;76.87;96210.00;4974343;28;20134;-67
2021/03/05 08:28:05;;;;;;;10.23;8.43;;;5.80;77.80;;;3.90;75.90;96213.28;4937455;28;20047;-69
2021/03/05 08:30:33;;;;;;;11.98;9.40;;;5.70;77.40;;;3.91;76.05;96217.50;4952861;28;20035;-69
2021/03/05 08:33:03;;;;;;;10.68;8.95;;;5.70;77.50;;;3.92;76.15;96225.16;4962641;28;20093;-66
2021/03/05 08:35:29;;;;;;;19.30;14.85;;;5.80;77.00;;;3.96;75.47;96223.09;4921142;28;20067;-66
2021/03/05 08:37:58;;;;;;;10.98;9.10;;;5.90;77.50;;;3.97;75.83;96235.13;4965345;28;20078;-70
2021/03/05 08:40:31;;;;;;;12.40;8.98;;;5.90;76.90;;;3.96;76.51;96228.28;4950739;28;20058;-74
2021/03/05 08:43:09;;;;;;;10.40;8.93;;;5.80;77.10;;;3.95;76.42;96231.88;4917942;29;20039;-67
2021/03/05 08:45:53;;;;;;;9.82;8.35;;;5.80;77.00;;;3.89;76.26;96235.88;4951016;28;20040;-66
2021/03/05 08:48:48;;;;;;;11.55;8.60;;;5.70;77.00;;;3.88;76.76;96246.44;4930823;28;20066;-69
2021/03/05 08:51:16;;;;;;;11.48;8.10;;;5.70;77.10;;;3.86;75.39;96245.75;4956801;28;20042;-66
2021/03/05 08:53:50;;;;;;;10.77;7.63;;;5.60;77.40;;;3.83;75.41;96251.22;4955776;28;20466;-66
2021/03/05 08:56:27;;;;;;;11.23;7.93;;;5.60;77.60;;;3.76;75.33;96257.97;4953314;28;20097;-66
2021/03/05 08:59:00;;;;;;;11.27;8.45;;;5.40;76.90;;;3.68;76.03;96264.72;4955213;28;20518;-68
2021/03/05 09:01:46;;;;;;;11.20;8.07;;;5.40;76.90;;;3.61;75.89;96271.41;4966234;28;20129;-65
2021/03/05 09:04:16;;;;;;;12.60;8.98;;;5.40;76.70;;;3.57;75.26;96280.47;4958430;28;20135;-65
2021/03/05 09:06:58;;;;;;;11.60;7.40;;;5.40;77.10;;;3.45;75.74;96284.22;4957951;28;20035;-71
2021/03/05 09:09:30;;;;;;;10.68;7.38;;;5.10;76.40;;;3.33;75.55;96278.34;4949813;28;20035;-73
2021/03/05 09:12:13;;;;;;;11.23;7.25;;;5.00;75.90;;;3.25;75.13;96290.41;4977598;28;20066;-71
2021/03/05 09:14:40;;;;;;;11.15;6.85;;;4.90;76.10;;;3.20;74.51;96288.22;4950624;28;20058;-71
2021/03/05 09:17:06;;;;;;;12.25;7.03;;;4.90;75.90;;;3.17;74.39;96292.84;4954536;28;20038;-70
2021/03/05 09:19:39;;;;;;;12.77;7.13;;;5.00;76.20;;;3.18;75.17;96294.53;4947968;28;20028;-72
2021/03/05 09:22:10;;;;;;;12.57;7.22;;;5.00;76.40;;;3.18;74.83;96300.53;4967404;28;20066;-71
2021/03/05 09:24:56;;;;;;;14.60;7.90;;;5.10;76.50;;;3.18;75.47;96302.31;4963190;28;20390;-66
2021/03/05 09:27:26;;;;;;;13.55;8.20;;;5.10;76.10;;;3.21;74.93;96304.63;4962179;28;20394;-64
2021/03/05 09:29:53;;;;;;;13.40;8.00;;;5.10;76.50;;;3.27;74.65;96304.06;4964587;28;20035;-68
2021/03/05 09:32:18;;;;;;;15.43;9.20;;;5.40;76.10;;;3.33;75.07;96313.91;4931072;28;20038;-69
2021/03/05 09:35:03;;;;;;;16.52;9.65;;;5.40;76.30;;;3.38;76.49;96311.72;4964947;28;20129;-74
2021/03/05 09:37:29;;;;;;;25.20;15.02;;;5.50;75.80;;;3.44;75.13;96316.38;4938046;28;20034;-73
2021/03/05 09:39:58;;;;;;;24.75;15.10;;;5.60;76.40;;;3.51;74.66;96320.06;4952107;29;20042;-69
2021/03/05 09:42:49;;;;;;;23.70;14.35;;;5.60;75.10;;;3.57;75.74;96323.88;4935341;28;20051;-71
2021/03/05 09:45:36;;;;;;;;;;;5.60;75.10;;;3.63;76.16;96321.53;4938292;28;20581;-68
2021/03/05 09:48:03;;;;;;;15.52;8.95;;;5.80;74.80;;;3.67;74.03;96325.50;4950023;28;19921;-72
2021/03/05 09:50:28;;;;;;;15.57;9.18;;;5.70;73.40;;;3.68;74.09;96324.53;4933212;28;20043;-73
2021/03/05 09:52:54;;;;;;;15.75;9.63;;;5.70;73.90;;;3.70;74.40;96327.00;4938448;28;20029;-78
2021/03/05 09:55:24;;;;;;;16.58;9.15;;;5.90;74.20;;;3.74;74.41;96330.94;4946817;28;20053;-67
2021/03/05 09:57:50;;;;;;;20.42;9.70;;;5.80;73.40;;;3.73;74.01;96337.13;4987618;28;20467;-67
2021/03/05 10:00:29;;;;;;;15.90;9.35;;;5.70;73.30;;;3.75;74.58;96339.56;4955417;28;20122;-68
2021/03/05 10:03:10;;;;;;;18.65;10.27;;;5.70;73.70;;;3.76;74.25;96338.59;4923372;28;20054;-67
2021/03/05 10:05:37;;;;;;;18.42;10.90;;;5.70;73.60;;;3.75;74.02;96335.19;4970874;28;20085;-67
2021/03/05 10:08:25;;;;;;;19.58;11.43;;;5.60;73.40;;;3.78;73.67;96349.69;4953924;28;20102;-71
2021/03/05 10:11:05;;;;;;;19.73;11.90;;;5.70;73.30;;;3.83;74.70;96347.47;4929149;28;20038;-71
2021/03/05 10:13:53;;;;;;;16.65;11.13;;;5.90;73.80;;;3.83;73.51;96353.50;4921484;28;20738;-71
2021/03/05 10:16:40;;;;;;;25.70;15.10;;;5.80;72.80;;;3.85;73.52;96358.59;4950201;28;20046;-69
2021/03/05 10:19:11;;;;;;;19.35;10.90;;;5.80;72.60;;;3.89;73.55;96367.75;4929814;28;20049;-65
2021/03/05 10:21:51;;;;;;;16.77;9.95;;;5.80;72.80;;;3.89;73.64;96375.56;4959479;28;20034;-72
2021/03/05 10:24:21;;;;;;;15.10;10.27;;;5.80;73.60;;;3.90;73.79;96365.03;4969699;28;20038;-68
2021/03/05 10:27:21;;;;;;;20.50;10.53;;;5.90;73.80;;;3.96;73.60;96374.84;4932074;28;20058;-66
2021/03/05 10:29:49;;;;;;;16.27;10.43;;;6.00;73.20;;;4.03;73.29;96377.69;4940840;28;20109;-70
2021/03/05 10:32:36;;;;;;;16.90;9.75;;;6.20;72.90;;;4.06;73.48;96387.00;4980326;28;20096;-66
2021/03/05 10:35:09;;;;;;;25.08;15.05;;;6.10;72.60;;;4.09;73.54;96389.34;4955283;28;20617;-72
2021/03/05 10:37:36;;;;;;;17.10;10.70;;;6.20;73.10;;;4.12;73.32;96389.88;4950848;28;20097;-72
2021/03/05 10:40:04;;;;;;;12.60;8.15;;;6.20;73.00;;;4.19;73.38;96403.97;4932827;28;20042;-66
2021/03/05 10:42:29;;;;;;;16.35;9.60;;;6.20;72.60;;;4.20;72.62;96399.59;4918038;29;20044;-66